Time;durP1;ratioP1;P1;durP2;ratioP2;P2;SDS_P1;SDS_P2;PMS_P1;PMS_P2;Temp;Humidity;BMP_temperature;BMP_pressure;BME280_temperature;BME280_humidity;BME280_pressure;Samples;Min_cycle;Max_cycle;Signal;HPM_P1;HPM_P2
2021/10/07 00:02:22;;;;;;;0.60;0.60;;;;;;;10.64;100.00;100979.09;5091874;28;20182;-73
2021/10/07 00:04:47;;;;;;;3.70;0.83;;;;;;;10.56;100.00;100975.16;5091560;28;20260;-73
2021/10/07 00:07:13;;;;;;;0.70;0.70;;;;;;;10.66;100.00;100980.44;5091774;28;20220;-73
2021/10/07 00:09:39;;;;;;;3.00;0.87;;;;;;;10.62;100.00;100916.56;5091782;28;20177;-73
2021/10/07 00:12:08;;;;;;;0.60;0.60;;;;;;;10.60;100.00;100978.09;5091672;28;20178;-73
2021/10/07 00:14:34;;;;;;;0.90;0.80;;;;;;;10.56;100.00;100982.50;5072771;28;20652;-74
2021/10/07 00:16:59;;;;;;;0.87;0.80;;;;;;;10.45;100.00;100979.16;5091704;28;20174;-73
2021/10/07 00:19:25;;;;;;;0.97;0.93;;;;;;;10.35;100.00;100982.84;5091552;28;20178;-72
2021/10/07 00:21:50;;;;;;;1.30;1.20;;;;;;;10.36;100.00;100987.19;5091425;28;20532;-73
2021/10/07 00:24:16;;;;;;;0.77;0.77;;;;;;;10.38;100.00;100986.88;5091232;28;20668;-73
2021/10/07 00:26:47;;;;;;;1.63;1.10;;;;;;;10.34;100.00;100997.59;5091470;28;20574;-74
2021/10/07 00:31:56;;;;;;;0.70;0.70;;;;;;;10.31;100.00;100992.75;5091467;28;20592;-72
2021/10/07 00:34:41;;;;;;;1.53;0.87;;;;;;;10.36;100.00;100989.91;5090980;28;20200;-73
2021/10/07 00:37:22;;;;;;;1.13;1.07;;;;;;;10.17;100.00;100989.09;5073154;28;20169;-73
2021/10/07 00:39:48;;;;;;;0.80;0.80;;;;;;;10.17;100.00;100996.47;5091110;28;20220;-73
2021/10/07 00:42:14;;;;;;;0.90;0.80;;;;;;;10.27;100.00;101004.53;5091568;28;20621;-73
2021/10/07 00:44:39;;;;;;;0.90;0.67;;;;;;;10.13;100.00;100994.34;5072683;28;20637;-73
2021/10/07 00:47:06;;;;;;;1.70;0.97;;;;;;;10.21;100.00;100995.63;5091449;28;20185;-73
2021/10/07 00:49:33;;;;;;;1.93;1.20;;;;;;;10.09;100.00;101009.66;5091060;28;20180;-73
2021/10/07 00:51:59;;;;;;;1.77;1.10;;;;;;;10.07;100.00;101009.16;5090969;28;20169;-74
2021/10/07 00:54:26;;;;;;;1.37;1.27;;;;;;;10.06;100.00;101018.44;5090808;28;20729;-73
2021/10/07 00:56:54;;;;;;;1.10;1.00;;;;;;;10.20;100.00;101020.44;5091055;28;20184;-72
2021/10/07 00:59:19;;;;;;;1.10;1.00;;;;;;;10.17;100.00;101029.25;5091248;28;20181;-74
2021/10/07 01:01:45;;;;;;;0.80;0.80;;;;;;;10.14;100.00;101033.38;5090399;28;20184;-73
2021/10/07 01:04:11;;;;;;;1.67;1.17;;;;;;;10.02;100.00;101033.00;5090585;28;20201;-73
2021/10/07 01:06:37;;;;;;;0.93;0.87;;;;;;;10.08;100.00;101045.44;5090758;28;20220;-73
2021/10/07 01:09:04;;;;;;;1.70;1.60;;;;;;;10.12;100.00;101052.75;5090747;28;20174;-73
2021/10/07 01:11:30;;;;;;;1.07;0.97;;;;;;;10.27;100.00;101051.78;5090863;28;20181;-73
2021/10/07 01:13:56;;;;;;;0.70;0.70;;;;;;;10.26;100.00;101063.78;5090240;28;20212;-73
2021/10/07 01:16:22;;;;;;;1.10;1.00;;;;;;;10.30;100.00;101058.59;5090829;28;20170;-73
2021/10/07 01:18:48;;;;;;;1.43;1.13;;;;;;;10.42;100.00;101056.22;5090881;28;20509;-73
2021/10/07 01:21:15;;;;;;;1.30;1.00;;;;;;;10.47;100.00;101053.41;5090870;28;20181;-73
2021/10/07 01:23:42;;;;;;;1.30;1.10;;;;;;;10.52;100.00;101060.72;5090551;28;20180;-72
2021/10/07 01:26:12;;;;;;;1.30;1.17;;;;;;;10.55;100.00;101065.59;5072674;28;20599;-74
2021/10/07 01:28:40;;;;;;;1.00;1.00;;;;;;;10.58;100.00;101063.09;5090736;28;20170;-73
2021/10/07 01:31:06;;;;;;;1.53;0.90;;;;;;;10.46;100.00;101061.91;5090772;28;20170;-73
2021/10/07 01:33:32;;;;;;;1.73;1.10;;;;;;;10.38;100.00;101056.00;5090649;28;20724;-73
2021/10/07 01:35:58;;;;;;;1.13;0.93;;;;;;;10.49;100.00;101070.31;5090313;28;20276;-74
2021/10/07 01:38:23;;;;;;;1.50;1.07;;;;;;;10.67;100.00;101069.50;5090656;28;20252;-73
2021/10/07 01:40:49;;;;;;;0.90;0.90;;;;;;;10.84;100.00;101066.22;5072449;28;20606;-73
2021/10/07 01:43:14;;;;;;;1.10;1.00;;;;;;;10.80;100.00;101062.47;5090951;28;20212;-73
2021/10/07 01:45:40;;;;;;;1.03;0.80;;;;;;;10.87;100.00;101067.56;5090376;28;20185;-73
2021/10/07 01:48:05;;;;;;;1.20;1.10;;;;;;;10.98;100.00;101079.94;5090636;28;20182;-73
2021/10/07 01:50:31;;;;;;;1.17;1.07;;;;;;;11.07;100.00;101067.22;5090724;28;20181;-73
2021/10/07 01:52:57;;;;;;;1.53;0.90;;;;;;;11.19;100.00;101077.69;5093211;28;20201;-73
2021/10/07 01:55:22;;;;;;;1.67;0.93;;;;;;;11.24;100.00;101081.16;5079315;28;20534;-74
2021/10/07 01:57:48;;;;;;;2.67;1.00;;;;;;;11.26;100.00;101080.84;5091684;28;20178;-74
2021/10/07 02:00:13;;;;;;;2.43;1.00;;;;;;;11.21;100.00;101070.81;5091058;28;20271;-74
2021/10/07 02:02:39;;;;;;;1.40;1.10;;;;;;;11.20;100.00;101080.13;5090349;28;20173;-74
2021/10/07 02:05:06;;;;;;;1.10;0.80;;;;;;;11.16;100.00;101081.03;5090628;28;20565;-73
2021/10/07 02:07:31;;;;;;;1.40;1.10;;;;;;;11.18;100.00;101090.56;5090482;28;20231;-74
2021/10/07 02:09:56;;;;;;;1.60;0.87;;;;;;;11.15;100.00;101077.50;5090541;28;20216;-73
2021/10/07 02:12:22;;;;;;;1.67;1.57;;;;;;;10.59;100.00;101074.84;5091457;28;20170;-73
2021/10/07 02:14:47;;;;;;;3.90;1.57;;;;;;;10.21;100.00;101076.69;5093872;28;20180;-73
2021/10/07 02:17:13;;;;;;;2.90;1.47;;;;;;;10.04;100.00;101088.09;5093967;28;20184;-73
2021/10/07 02:19:38;;;;;;;1.60;1.50;;;;;;;9.97;100.00;101079.44;5093927;28;20179;-73
2021/10/07 02:22:04;;;;;;;1.50;1.40;;;;;;;10.21;100.00;101033.00;5093945;28;20209;-73
2021/10/07 02:24:29;;;;;;;3.87;2.07;;;;;;;10.47;100.00;101099.84;5093503;28;20177;-73
2021/10/07 02:26:55;;;;;;;0.90;0.90;;;;;;;10.68;100.00;101103.91;5093784;28;20578;-73
2021/10/07 02:29:20;;;;;;;1.30;1.20;;;;;;;10.82;100.00;101125.84;5093494;28;20174;-73
2021/10/07 02:31:46;;;;;;;1.40;1.30;;;;;;;10.84;100.00;101112.69;5093790;28;20181;-74
2021/10/07 02:34:11;;;;;;;2.20;1.40;;;;;;;10.86;100.00;101121.44;5093658;28;20202;-72
2021/10/07 02:36:37;;;;;;;1.90;1.00;;;;;;;10.88;100.00;101118.41;5093572;28;20178;-74
2021/10/07 02:39:03;;;;;;;1.20;1.10;;;;;;;10.93;100.00;101121.03;5093591;28;20256;-72
2021/10/07 02:41:30;;;;;;;2.20;1.50;;;;;;;10.34;100.00;101104.13;5093890;28;20197;-73
2021/10/07 02:43:56;;;;;;;1.23;1.13;;;;;;;10.30;100.00;101118.66;5093210;28;20178;-73
2021/10/07 02:46:21;;;;;;;5.33;1.60;;;;;;;10.19;100.00;101114.41;5093327;28;20181;-73
2021/10/07 02:48:47;;;;;;;1.70;1.27;;;;;;;10.23;100.00;101058.94;5093324;28;20181;-74
2021/10/07 02:51:12;;;;;;;2.13;1.73;;;;;;;10.20;100.00;101048.56;5093495;28;20633;-72
2021/10/07 02:53:38;;;;;;;1.20;1.17;;;;;;;10.29;100.00;101126.06;5093087;28;20193;-74
2021/10/07 02:56:04;;;;;;;1.50;1.40;;;;;;;10.19;100.00;101133.53;5093269;28;20174;-73
2021/10/07 02:58:30;;;;;;;1.40;1.30;;;;;;;10.47;100.00;101150.94;5093263;28;20178;-74
2021/10/07 03:00:55;;;;;;;1.53;1.40;;;;;;;10.60;100.00;101153.78;5093024;28;20537;-73
2021/10/07 03:03:21;;;;;;;1.80;1.40;;;;;;;10.63;100.00;101157.84;5093020;28;20185;-74
2021/10/07 03:05:46;;;;;;;1.80;1.43;;;;;;;10.31;100.00;101144.88;5092628;28;20224;-74
2021/10/07 03:08:12;;;;;;;1.63;1.30;;;;;;;10.08;100.00;101144.53;5092927;28;20626;-73
2021/10/07 03:10:37;;;;;;;1.83;1.60;;;;;;;9.86;100.00;101099.78;5093328;28;20178;-74
2021/10/07 03:13:03;;;;;;;4.47;1.53;;;;;;;9.72;100.00;101097.75;5092299;28;20213;-73
2021/10/07 03:15:28;;;;;;;1.60;1.50;;;;;;;9.79;100.00;101102.84;5092667;28;20185;-73
2021/10/07 03:17:53;;;;;;;2.00;1.53;;;;;;;10.02;100.00;101112.16;5092984;28;20166;-74
2021/10/07 03:20:19;;;;;;;2.10;1.90;;;;;;;10.25;100.00;101110.53;5093130;28;20178;-75
2021/10/07 03:22:45;;;;;;;1.93;1.67;;;;;;;10.42;100.00;101119.88;5092955;28;20185;-74
2021/10/07 03:25:11;;;;;;;1.80;1.43;;;;;;;10.46;100.00;101169.25;5091906;28;20166;-73
2021/10/07 03:27:37;;;;;;;1.47;1.33;;;;;;;10.49;100.00;101182.34;5092435;28;20178;-72
2021/10/07 03:30:04;;;;;;;2.30;2.00;;;;;;;10.51;100.00;101191.03;5092530;28;20186;-74
2021/10/07 03:32:29;;;;;;;5.00;1.90;;;;;;;10.47;100.00;101194.66;5092415;28;20193;-74
2021/10/07 03:34:55;;;;;;;2.90;1.30;;;;;;;10.48;100.00;101191.63;5092404;28;20178;-73
2021/10/07 03:37:20;;;;;;;2.27;1.67;;;;;;;10.50;100.00;101194.88;5092416;28;20538;-72
2021/10/07 03:39:45;;;;;;;1.50;1.40;;;;;;;10.27;100.00;101190.25;5088510;28;20193;-72
2021/10/07 03:42:11;;;;;;;3.30;1.67;;;;;;;10.23;100.00;101202.84;5092371;28;20177;-73
2021/10/07 03:44:36;;;;;;;1.80;1.70;;;;;;;10.14;100.00;101216.31;5092345;28;20182;-73
2021/10/07 03:47:02;;;;;;;2.10;2.00;;;;;;;10.26;100.00;101216.72;5092373;28;20178;-73
2021/10/07 03:49:28;;;;;;;1.80;1.67;;;;;;;10.32;100.00;101215.59;5092496;28;20429;-74
2021/10/07 03:51:53;;;;;;;3.67;1.47;;;;;;;10.25;100.00;101222.50;5092423;28;20178;-73
2021/10/07 03:54:18;;;;;;;4.50;2.20;;;;;;;10.37;100.00;101226.44;5092103;28;20220;-73
2021/10/07 03:56:44;;;;;;;2.97;1.90;;;;;;;10.54;100.00;101234.16;5092171;28;20230;-73
2021/10/07 03:59:09;;;;;;;2.80;1.70;;;;;;;10.74;100.00;101233.13;5092278;28;20178;-73
2021/10/07 04:01:36;;;;;;;4.23;1.50;;;;;;;10.85;100.00;101241.97;5092071;28;20257;-73
2021/10/07 04:04:01;;;;;;;1.60;1.47;;;;;;;10.64;100.00;101241.44;5073767;28;20543;-73
2021/10/07 04:06:26;;;;;;;2.37;1.60;;;;;;;10.59;100.00;101247.78;5091979;28;20186;-73
2021/10/07 04:08:52;;;;;;;2.23;1.67;;;;;;;10.16;100.00;101237.88;5091898;28;20213;-72
2021/10/07 04:11:17;;;;;;;1.70;1.60;;;;;;;9.88;100.00;101245.78;5091789;28;20185;-73
2021/10/07 04:13:43;;;;;;;1.73;1.63;;;;;;;10.08;100.00;101248.31;5091467;28;20206;-73
2021/10/07 04:16:08;;;;;;;1.63;1.53;;;;;;;10.37;100.00;101255.69;5091801;28;20178;-74
2021/10/07 04:18:33;;;;;;;2.13;1.57;;;;;;;10.56;100.00;101262.03;5091830;28;20201;-73
2021/10/07 04:20:59;;;;;;;1.60;1.50;;;;;;;10.67;100.00;101269.00;5091754;28;20185;-73
2021/10/07 04:23:24;;;;;;;2.63;1.60;;;;;;;10.67;100.00;101263.53;5073628;28;20272;-72
2021/10/07 04:25:50;;;;;;;1.90;1.60;;;;;;;10.61;100.00;101261.16;5091733;28;20633;-73
2021/10/07 04:28:15;;;;;;;1.60;1.47;;;;;;;10.50;100.00;101254.19;5091608;28;20178;-72
2021/10/07 04:30:42;;;;;;;1.80;1.37;;;;;;;10.47;100.00;101271.97;5091620;28;20231;-72
2021/10/07 04:33:09;;;;;;;2.00;1.80;;;;;;;10.18;100.00;101263.78;5091451;28;20207;-73
2021/10/07 04:35:35;;;;;;;2.30;2.10;;;;;;;9.90;100.00;101259.13;5090379;28;20174;-72
2021/10/07 04:38:01;;;;;;;2.80;1.83;;;;;;;9.83;100.00;101276.63;5091438;28;20648;-73
2021/10/07 04:40:26;;;;;;;1.70;1.60;;;;;;;10.17;100.00;101285.91;5091463;28;20232;-73
2021/10/07 04:42:52;;;;;;;3.00;1.53;;;;;;;10.40;100.00;101296.06;5091401;28;20537;-73
2021/10/07 04:45:18;;;;;;;2.30;1.93;;;;;;;9.95;100.00;101259.88;5091149;28;20184;-73
2021/10/07 04:47:44;;;;;;;1.97;1.87;;;;;;;9.73;100.00;101213.16;5091265;28;20174;-73
2021/10/07 04:50:09;;;;;;;3.20;2.20;;;;;;;9.86;100.00;101305.28;5091248;28;20653;-73
2021/10/07 04:52:35;;;;;;;1.77;1.67;;;;;;;10.20;100.00;101236.19;5091134;28;20170;-74
2021/10/07 04:55:00;;;;;;;1.97;1.87;;;;;;;10.26;100.00;101237.78;5091053;28;20166;-73
2021/10/07 04:57:26;;;;;;;3.93;1.70;;;;;;;10.37;100.00;101315.78;5091120;28;20472;-72
2021/10/07 04:59:51;;;;;;;1.47;1.30;;;;;;;10.43;100.00;101315.44;5091045;28;20376;-73
2021/10/07 05:02:17;;;;;;;1.50;1.40;;;;;;;10.16;100.00;101308.88;5073114;28;20656;-73
2021/10/07 05:04:42;;;;;;;3.50;2.03;;;;;;;9.86;100.00;101255.34;5090986;28;20184;-73
2021/10/07 05:07:07;;;;;;;2.37;1.93;;;;;;;9.89;100.00;101274.69;5090861;28;20209;-73
2021/10/07 05:09:33;;;;;;;2.83;2.07;;;;;;;9.78;100.00;101263.03;5072760;28;20166;-73
2021/10/07 05:11:58;;;;;;;3.53;1.77;;;;;;;9.78;100.00;101271.22;5090994;28;20208;-73
2021/10/07 05:14:24;;;;;;;2.40;2.20;;;;;;;10.06;100.00;101324.22;5090389;28;20542;-73
2021/10/07 05:16:49;;;;;;;2.40;2.20;;;;;;;10.32;100.00;101332.22;5072785;28;20181;-73
2021/10/07 05:19:14;;;;;;;2.07;1.70;;;;;;;10.48;100.00;101341.91;5090865;28;20657;-74
2021/10/07 05:21:40;;;;;;;2.43;2.10;;;;;;;10.44;100.00;101340.84;5090906;28;20651;-73
2021/10/07 05:24:05;;;;;;;1.60;1.50;;;;;;;10.57;100.00;101347.56;5090615;28;20197;-74
2021/10/07 05:26:31;;;;;;;1.90;1.67;;;;;;;10.67;100.00;101334.59;5090724;28;20170;-73
2021/10/07 05:28:56;;;;;;;1.40;1.30;;;;;;;10.70;100.00;101355.03;5090700;28;20231;-74
2021/10/07 05:31:21;;;;;;;1.50;1.40;;;;;;;10.67;100.00;101361.91;5090679;28;20265;-73
2021/10/07 05:33:47;;;;;;;1.07;1.03;;;;;;;10.56;100.00;101365.03;5090955;28;20524;-74
2021/10/07 05:36:12;;;;;;;2.70;1.20;;;;;;;10.40;100.00;101361.63;5090774;28;20231;-74
2021/10/07 05:38:38;;;;;;;1.00;1.00;;;;;;;10.34;100.00;101365.53;5090516;28;20694;-73
2021/10/07 05:41:04;;;;;;;1.37;1.00;;;;;;;10.34;100.00;101358.16;5090689;28;20204;-74
2021/10/07 05:43:30;;;;;;;1.37;1.10;;;;;;;10.39;100.00;101370.94;5090865;28;20177;-73
2021/10/07 05:45:55;;;;;;;1.87;1.20;;;;;;;10.41;100.00;101376.91;5090382;28;20178;-72
2021/10/07 05:48:21;;;;;;;1.63;1.47;;;;;;;10.28;100.00;101374.88;5093412;28;20173;-72
2021/10/07 05:50:46;;;;;;;1.67;1.30;;;;;;;10.20;100.00;101361.78;5094721;28;20212;-73
2021/10/07 05:53:11;;;;;;;1.20;1.10;;;;;;;10.12;100.00;101377.69;5094542;28;20193;-72
2021/10/07 05:55:37;;;;;;;2.17;1.20;;;;;;;10.08;100.00;101379.34;5094411;28;20202;-73
2021/10/07 05:58:02;;;;;;;1.40;1.30;;;;;;;10.11;100.00;101383.44;5094509;28;20572;-71
2021/10/07 06:00:28;;;;;;;1.93;1.70;;;;;;;10.16;100.00;101379.84;5094677;28;20687;-72
2021/10/07 06:02:53;;;;;;;1.30;1.20;;;;;;;10.15;100.00;101373.59;5094941;28;20183;-73
2021/10/07 06:05:19;;;;;;;1.87;1.37;;;;;;;10.08;100.00;101349.31;5094195;28;20257;-74
2021/10/07 06:07:44;;;;;;;1.50;1.40;;;;;;;10.05;100.00;101360.81;5094364;28;20198;-74
2021/10/07 06:10:11;;;;;;;1.67;1.50;;;;;;;10.05;100.00;101373.66;5094337;28;20400;-73
2021/10/07 06:12:37;;;;;;;1.47;1.37;;;;;;;9.96;100.00;101380.81;5094270;28;20170;-74
2021/10/07 06:15:03;;;;;;;1.50;1.40;;;;;;;9.75;100.00;101363.78;5093847;28;20648;-74
2021/10/07 06:17:28;;;;;;;1.87;1.73;;;;;;;9.68;100.00;101388.63;5094030;28;20210;-74
2021/10/07 06:20:00;;;;;;;2.20;2.10;;;;;;;9.76;100.00;101400.88;5094121;28;20208;-74
2021/10/07 06:22:25;;;;;;;1.77;1.67;;;;;;;9.87;100.00;101399.72;5094567;28;20693;-73
2021/10/07 06:24:50;;;;;;;2.17;1.83;;;;;;;9.93;100.00;101420.41;5093928;28;20253;-74
2021/10/07 06:27:16;;;;;;;2.30;1.53;;;;;;;9.98;100.00;101417.66;5093805;28;20235;-74
2021/10/07 06:29:41;;;;;;;5.13;2.30;;;;;;;9.91;100.00;101416.34;5093930;28;20205;-73
2021/10/07 06:32:07;;;;;;;5.37;3.20;;;;;;;9.53;100.00;101414.09;5093855;28;20201;-73
2021/10/07 06:34:32;;;;;;;2.87;2.50;;;;;;;9.56;100.00;101420.91;5093793;28;20272;-74
2021/10/07 06:36:57;;;;;;;1.97;1.60;;;;;;;9.79;100.00;101419.41;5093782;28;20515;-75
2021/10/07 06:39:23;;;;;;;6.90;2.10;;;;;;;9.84;100.00;101427.59;5093700;28;20215;-74
2021/10/07 06:41:48;;;;;;;2.70;1.70;;;;;;;9.83;100.00;101428.66;5093486;28;20204;-74
2021/10/07 06:44:14;;;;;;;3.40;1.80;;;;;;;9.89;100.00;101430.28;5075284;28;20211;-74
2021/10/07 06:46:40;;;;;;;5.63;3.40;;;;;;;9.93;100.00;101433.25;5093587;28;20178;-75
2021/10/07 06:49:05;;;;;;;2.57;2.37;;;;;;;9.75;100.00;101435.53;5093591;28;20328;-77
2021/10/07 06:51:30;;;;;;;3.07;2.60;;;;;;;9.49;100.00;101434.03;5093629;28;20451;-72
2021/10/07 06:53:58;;;;;;;2.80;2.60;;;;;;;9.40;100.00;101431.09;5093424;28;20198;-73
2021/10/07 06:56:24;;;;;;;6.77;2.90;;;;;;;9.42;100.00;101444.44;5093483;28;20177;-75
2021/10/07 06:58:54;;;;;;;3.93;2.50;;;;;;;9.48;100.00;101441.41;5092296;28;20186;-73
2021/10/07 07:01:20;;;;;;;4.77;2.50;;;;;;;9.64;100.00;101447.59;5093377;28;20178;-74
2021/10/07 07:03:47;;;;;;;4.67;2.57;;;;;;;9.55;100.00;101441.13;5093219;28;20178;-73
2021/10/07 07:06:12;;;;;;;2.77;2.57;;;;;;;9.64;100.00;101441.31;5093017;28;20185;-73
2021/10/07 07:08:38;;;;;;;2.90;2.67;;;;;;;9.75;100.00;101451.91;5093222;28;20597;-72
2021/10/07 07:11:03;;;;;;;3.47;3.00;;;;;;;9.93;100.00;101450.44;5093145;28;20257;-72
2021/10/07 07:13:28;;;;;;;4.50;3.50;;;;;;;10.07;100.00;101442.44;5092918;28;20769;-72
2021/10/07 07:15:54;;;;;;;4.57;3.57;;;;;;;10.21;100.00;101454.38;5092934;28;20178;-71
2021/10/07 07:18:19;;;;;;;4.20;3.20;;;;;;;10.27;100.00;101444.22;5093123;28;20268;-72
2021/10/07 07:20:44;;;;;;;4.97;3.90;;;;;;;10.36;100.00;101442.53;5093016;28;20223;-73
2021/10/07 07:23:10;;;;;;;3.80;3.27;;;;;;;10.42;100.00;101466.81;5092874;28;20181;-72
2021/10/07 07:25:36;;;;;;;4.63;4.13;;;;;;;10.56;100.00;101427.88;5092642;28;20181;-73
2021/10/07 07:28:03;;;;;;;6.30;4.30;;;;;;;10.70;100.00;101458.91;5092596;28;20174;-72
2021/10/07 07:30:28;;;;;;;9.07;5.00;;;;;;;10.83;100.00;101479.28;5092529;28;20895;-72
2021/10/07 07:32:53;;;;;;;6.07;4.83;;;;;;;10.90;100.00;101477.06;5092417;28;20233;-73
2021/10/07 07:35:19;;;;;;;7.40;5.33;;;;;;;10.99;100.00;101491.72;5092536;28;20188;-72
2021/10/07 07:37:44;;;;;;;5.57;5.07;;;;;;;10.99;100.00;101486.25;5092456;28;20669;-71
2021/10/07 07:40:10;;;;;;;5.87;4.90;;;;;;;11.06;100.00;101485.91;5074358;28;20544;-71
2021/10/07 07:42:36;;;;;;;6.17;4.50;;;;;;;11.07;100.00;101493.03;5092567;28;20178;-71
2021/10/07 07:45:03;;;;;;;6.60;4.70;;;;;;;11.13;100.00;101487.19;5092260;28;20652;-71
2021/10/07 07:47:28;;;;;;;6.97;4.17;;;;;;;11.25;100.00;101490.34;5092202;28;20289;-71
2021/10/07 07:49:54;;;;;;;6.57;5.00;;;;;;;11.35;100.00;101494.09;5074074;28;20396;-71
2021/10/07 07:52:19;;;;;;;6.40;4.10;;;;;;;11.41;100.00;101495.66;5092277;28;20570;-71
2021/10/07 07:54:44;;;;;;;5.03;4.10;;;;;;;11.52;100.00;101500.72;5092002;28;20202;-71
2021/10/07 07:57:10;;;;;;;4.10;3.23;;;;;;;11.60;100.00;101502.03;5092351;28;20534;-71
2021/10/07 07:59:35;;;;;;;9.13;3.40;;;;;;;11.67;100.00;101502.47;5092195;28;20181;-71
2021/10/07 08:02:01;;;;;;;9.53;3.40;;;;;;;11.69;100.00;101505.72;5092095;28;20655;-71
2021/10/07 08:04:26;;;;;;;3.50;3.17;;;;;;;11.70;100.00;101507.34;5091712;28;20174;-71
2021/10/07 08:06:52;;;;;;;5.40;3.70;;;;;;;11.78;100.00;101512.19;5091935;28;20174;-72
2021/10/07 08:09:17;;;;;;;4.13;3.83;;;;;;;11.89;100.00;101524.69;5091834;28;20247;-71
2021/10/07 08:11:42;;;;;;;3.50;3.23;;;;;;;11.95;100.00;101525.41;5091747;28;20180;-71
2021/10/07 08:14:09;;;;;;;3.97;3.67;;;;;;;12.09;100.00;101526.31;5091780;28;20210;-72
2021/10/07 08:16:36;;;;;;;4.53;3.60;;;;;;;12.15;100.00;101522.41;5092065;28;20198;-72
2021/10/07 08:19:02;;;;;;;4.03;3.63;;;;;;;12.12;100.00;101530.38;5091918;28;20178;-71
2021/10/07 08:21:27;;;;;;;3.70;2.70;;;;;;;12.16;100.00;101531.44;5091716;28;20530;-72
2021/10/07 08:23:54;;;;;;;3.17;2.93;;;;;;;12.31;100.00;101535.91;5091924;28;20560;-72
2021/10/07 08:26:19;;;;;;;5.93;3.30;;;;;;;12.42;100.00;101540.91;5093810;28;20173;-72
2021/10/07 08:28:44;;;;;;;4.60;2.40;;;;;;;12.61;100.00;101542.84;5102473;28;20189;-72
2021/10/07 08:31:11;;;;;;;3.27;2.50;;;;;;;12.78;100.00;101540.38;5093773;28;20201;-72
2021/10/07 08:33:36;;;;;;;3.27;2.80;;;;;;;13.02;100.00;101535.59;5092551;28;20719;-71
2021/10/07 08:36:02;;;;;;;2.37;2.17;;;;;;;13.10;100.00;101542.28;5091896;28;20178;-72
2021/10/07 08:38:29;;;;;;;2.50;2.30;;;;;;;13.20;100.00;101544.91;5091563;28;20252;-71
2021/10/07 08:40:55;;;;;;;2.50;2.30;;;;;;;13.22;100.00;101537.19;5091530;28;20621;-72
2021/10/07 08:43:24;;;;;;;2.03;1.67;;;;;;;13.32;100.00;101550.72;5091657;28;20188;-73
2021/10/07 08:45:49;;;;;;;2.50;2.30;;;;;;;13.16;100.00;101534.78;5091527;28;20173;-72
2021/10/07 08:48:15;;;;;;;3.23;2.97;;;;;;;12.99;100.00;101538.09;5091318;28;20231;-72
2021/10/07 08:50:40;;;;;;;6.27;3.07;;;;;;;12.97;100.00;101549.38;5091297;28;20177;-73
2021/10/07 08:53:08;;;;;;;3.40;2.83;;;;;;;13.24;100.00;101550.59;5091289;28;20206;-72
2021/10/07 08:55:34;;;;;;;3.37;3.03;;;;;;;13.37;100.00;101558.03;5091203;28;20165;-72
2021/10/07 08:57:59;;;;;;;3.70;3.40;;;;;;;13.26;100.00;101551.91;5091104;28;20239;-72
2021/10/07 09:00:24;;;;;;;2.80;2.60;;;;;;;13.58;100.00;101563.94;5073083;28;20435;-72
2021/10/07 09:02:50;;;;;;;5.87;3.23;;;;;;;13.72;100.00;101563.94;5091040;28;20178;-73
2021/10/07 09:05:22;;;;;;;2.70;2.50;;;;;;;13.78;99.34;101562.75;5072675;28;20656;-72
2021/10/07 09:08:04;;;;;;;2.47;2.27;;;;;;;13.68;97.55;101555.53;5091038;28;20193;-72
2021/10/07 09:10:47;;;;;;;3.57;2.03;;;;;;;13.74;97.04;101559.78;5091490;28;20223;-72
2021/10/07 09:13:14;;;;;;;3.63;2.90;;;;;;;13.75;98.92;101566.13;5090760;28;20557;-73
2021/10/07 09:15:51;;;;;;;3.87;3.40;;;;;;;13.62;100.00;101556.75;5091030;28;20181;-72
2021/10/07 09:18:18;;;;;;;3.80;3.40;;;;;;;13.57;100.00;101554.91;5090973;28;20183;-72
2021/10/07 09:20:47;;;;;;;3.30;3.00;;;;;;;13.58;100.00;101553.78;5090972;28;20177;-72
2021/10/07 09:23:19;;;;;;;3.87;3.33;;;;;;;13.61;100.00;101566.91;5090266;28;20173;-72
2021/10/07 09:26:08;;;;;;;3.70;3.17;;;;;;;13.55;100.00;101556.31;5087047;28;20185;-73
2021/10/07 09:28:53;;;;;;;4.17;3.30;;;;;;;13.58;100.00;101545.53;5089731;28;20476;-71
2021/10/07 09:31:30;;;;;;;3.47;3.17;;;;;;;13.52;100.00;101557.75;5090778;28;20174;-72
2021/10/07 09:34:01;;;;;;;3.67;3.00;;;;;;;13.43;100.00;101554.06;5090517;28;20239;-72
2021/10/07 09:36:27;;;;;;;3.60;2.87;;;;;;;13.53;100.00;101561.31;5090760;28;20178;-72
2021/10/07 09:38:54;;;;;;;3.10;2.80;;;;;;;13.60;100.00;101559.81;5072514;28;20177;-73
2021/10/07 09:41:31;;;;;;;2.97;2.77;;;;;;;13.72;100.00;101563.94;5090727;28;20184;-72
2021/10/07 09:44:03;;;;;;;4.83;3.30;;;;;;;13.87;100.00;101564.47;5090472;28;20186;-72
2021/10/07 09:46:40;;;;;;;2.83;2.63;;;;;;;13.86;100.00;101573.00;5072375;28;20539;-72
2021/10/07 09:49:20;;;;;;;3.60;3.00;;;;;;;13.93;100.00;101573.44;5090925;28;20226;-72
2021/10/07 09:51:54;;;;;;;3.33;2.93;;;;;;;14.03;100.00;101573.19;5090563;28;20177;-73
2021/10/07 09:54:26;;;;;;;4.57;2.90;;;;;;;14.02;99.29;101574.31;5090271;28;20193;-73
2021/10/07 09:56:58;;;;;;;3.73;3.00;;;;;;;14.11;100.00;101582.66;5090603;28;20200;-72
2021/10/07 09:59:25;;;;;;;6.23;3.67;;;;;;;14.05;98.67;101576.47;5090555;28;20170;-72
2021/10/07 10:01:52;;;;;;;3.00;2.70;;;;;;;14.07;99.71;101582.47;5090535;28;20192;-72
2021/10/07 10:04:18;;;;;;;4.33;2.90;;;;;;;13.98;98.81;101576.06;5090263;28;20174;-72
2021/10/07 10:06:43;;;;;;;8.30;2.87;;;;;;;13.97;99.15;101571.69;5090422;28;20526;-72
2021/10/07 10:09:09;;;;;;;2.63;2.43;;;;;;;14.01;99.99;101575.44;5090222;28;20174;-73
2021/10/07 10:11:34;;;;;;;3.23;2.93;;;;;;;14.02;99.29;101579.00;5090449;28;20174;-72
2021/10/07 10:14:00;;;;;;;3.13;2.80;;;;;;;13.93;96.86;101585.22;5090108;28;20241;-72
2021/10/07 10:16:25;;;;;;;2.43;2.10;;;;;;;13.99;98.07;101583.19;5090385;28;20510;-72
2021/10/07 10:18:58;;;;;;;2.70;2.40;;;;;;;14.04;98.28;101587.78;5090248;28;20646;-71
2021/10/07 10:21:26;;;;;;;2.47;2.37;;;;;;;14.12;98.11;101590.59;5090163;28;20467;-72
2021/10/07 10:23:53;;;;;;;3.83;2.53;;;;;;;14.18;97.02;101589.41;5090059;28;20223;-72
2021/10/07 10:26:19;;;;;;;2.67;2.27;;;;;;;14.16;95.24;101591.59;5072132;28;20181;-71
2021/10/07 10:29:03;;;;;;;6.23;2.93;;;;;;;14.33;95.42;101598.44;5090242;28;20186;-71
2021/10/07 10:31:40;;;;;;;2.40;2.07;;;;;;;14.45;93.74;101607.78;5090105;28;20201;-72
2021/10/07 10:34:15;;;;;;;2.27;2.03;;;;;;;14.44;92.00;101608.09;5092285;28;20724;-71
2021/10/07 10:36:52;;;;;;;3.23;2.03;;;;;;;14.47;92.99;101602.00;5093766;28;20196;-72
2021/10/07 10:39:30;;;;;;;1.90;1.80;;;;;;;14.48;92.94;101601.69;5093876;28;20170;-72
2021/10/07 10:42:01;;;;;;;3.27;2.17;;;;;;;14.43;92.38;101596.25;5093701;28;20479;-71
2021/10/07 10:44:26;;;;;;;2.17;1.83;;;;;;;14.34;92.36;101592.63;5091725;28;20648;-72
2021/10/07 10:47:06;;;;;;;2.00;1.90;;;;;;;14.26;91.45;101594.16;5093307;28;20213;-71
2021/10/07 10:49:59;;;;;;;2.80;2.17;;;;;;;14.37;90.81;101600.25;5093410;28;20698;-71
2021/10/07 10:52:40;;;;;;;4.60;2.20;;;;;;;14.50;91.31;101610.44;5093426;28;20648;-72
2021/10/07 10:55:25;;;;;;;2.10;1.67;;;;;;;14.59;88.35;101613.25;5093486;28;20253;-72
2021/10/07 10:58:11;;;;;;;2.13;1.80;;;;;;;14.42;89.15;101604.81;5093404;28;20174;-72
2021/10/07 11:00:39;;;;;;;2.20;2.00;;;;;;;14.57;91.44;101605.31;5092824;28;20286;-72
2021/10/07 11:03:07;;;;;;;1.73;1.63;;;;;;;14.84;91.49;101620.94;5093433;28;20268;-72
2021/10/07 11:05:35;;;;;;;1.90;1.80;;;;;;;15.01;89.83;101639.50;5074902;28;20193;-72
2021/10/07 11:08:09;;;;;;;1.63;1.53;;;;;;;15.13;87.04;101622.44;5093680;28;20176;-72
2021/10/07 11:10:44;;;;;;;3.00;1.43;;;;;;;15.25;85.94;101625.44;5093118;28;20700;-72
2021/10/07 11:13:31;;;;;;;2.13;1.93;;;;;;;14.94;86.31;101614.38;5093009;28;20197;-71
2021/10/07 11:16:02;;;;;;;1.57;1.47;;;;;;;15.09;86.46;101626.94;5093038;28;20178;-72
2021/10/07 11:18:35;;;;;;;3.30;1.20;;;;;;;15.34;87.53;101634.59;5093031;28;20166;-72
2021/10/07 11:21:00;;;;;;;1.57;1.10;;;;;;;15.35;84.18;101633.47;5092983;28;20177;-72
2021/10/07 11:23:28;;;;;;;1.50;1.40;;;;;;;15.18;82.50;101623.13;5092758;28;20180;-72